sensor_id;sensor_type;location;lat;lon;timestamp;P1;durP1;ratioP1;P2;durP2;ratioP2
23206;SDS011;11773;52.570;13.052;2023-11-19T00:01:27;3.53;;;3.23;;
23206;SDS011;11773;52.570;13.052;2023-11-19T00:03:57;3.77;;;3.33;;
23206;SDS011;11773;52.570;13.052;2023-11-19T00:06:27;3.70;;;3.40;;
23206;SDS011;11773;52.570;13.052;2023-11-19T00:08:56;4.90;;;3.50;;
23206;SDS011;11773;52.570;13.052;2023-11-19T00:11:27;3.73;;;3.37;;
23206;SDS011;11773;52.570;13.052;2023-11-19T00:13:56;5.27;;;4.37;;
23206;SDS011;11773;52.570;13.052;2023-11-19T00:16:26;4.80;;;4.30;;
23206;SDS011;11773;52.570;13.052;2023-11-19T00:18:55;4.27;;;3.87;;
23206;SDS011;11773;52.570;13.052;2023-11-19T00:21:25;3.30;;;3.00;;
23206;SDS011;11773;52.570;13.052;2023-11-19T00:23:55;4.40;;;4.00;;
23206;SDS011;11773;52.570;13.052;2023-11-19T00:26:25;4.07;;;3.67;;
23206;SDS011;11773;52.570;13.052;2023-11-19T00:28:55;4.40;;;4.00;;
23206;SDS011;11773;52.570;13.052;2023-11-19T00:31:24;4.00;;;3.57;;
23206;SDS011;11773;52.570;13.052;2023-11-19T00:33:55;4.27;;;3.80;;
23206;SDS011;11773;52.570;13.052;2023-11-19T00:36:24;3.20;;;2.90;;
23206;SDS011;11773;52.570;13.052;2023-11-19T00:38:54;3.73;;;3.30;;
23206;SDS011;11773;52.570;13.052;2023-11-19T00:41:24;3.97;;;3.50;;
23206;SDS011;11773;52.570;13.052;2023-11-19T00:43:53;3.40;;;3.10;;
23206;SDS011;11773;52.570;13.052;2023-11-19T00:46:23;3.50;;;3.20;;
23206;SDS011;11773;52.570;13.052;2023-11-19T00:48:53;3.57;;;3.27;;
23206;SDS011;11773;52.570;13.052;2023-11-19T00:51:22;3.90;;;3.37;;
23206;SDS011;11773;52.570;13.052;2023-11-19T00:53:52;3.87;;;3.47;;
23206;SDS011;11773;52.570;13.052;2023-11-19T00:56:22;3.40;;;2.90;;
23206;SDS011;11773;52.570;13.052;2023-11-19T00:58:52;3.53;;;3.23;;
23206;SDS011;11773;52.570;13.052;2023-11-19T01:01:21;3.63;;;3.23;;
23206;SDS011;11773;52.570;13.052;2023-11-19T01:03:52;3.40;;;3.10;;
23206;SDS011;11773;52.570;13.052;2023-11-19T01:06:29;3.80;;;3.20;;
23206;SDS011;11773;52.570;13.052;2023-11-19T01:08:59;3.40;;;3.10;;
23206;SDS011;11773;52.570;13.052;2023-11-19T01:11:29;4.70;;;4.03;;
23206;SDS011;11773;52.570;13.052;2023-11-19T01:13:59;3.47;;;3.17;;
23206;SDS011;11773;52.570;13.052;2023-11-19T01:16:29;3.37;;;3.00;;
23206;SDS011;11773;52.570;13.052;2023-11-19T01:18:58;3.50;;;3.07;;
23206;SDS011;11773;52.570;13.052;2023-11-19T01:21:31;3.70;;;3.40;;
23206;SDS011;11773;52.570;13.052;2023-11-19T01:24:01;3.60;;;3.30;;
23206;SDS011;11773;52.570;13.052;2023-11-19T01:26:32;4.17;;;3.33;;
23206;SDS011;11773;52.570;13.052;2023-11-19T01:29:02;3.23;;;2.93;;
23206;SDS011;11773;52.570;13.052;2023-11-19T01:31:31;3.53;;;2.97;;
23206;SDS011;11773;52.570;13.052;2023-11-19T01:34:01;3.30;;;3.00;;
23206;SDS011;11773;52.570;13.052;2023-11-19T01:36:30;3.23;;;2.93;;
23206;SDS011;11773;52.570;13.052;2023-11-19T01:39:00;3.03;;;2.73;;
23206;SDS011;11773;52.570;13.052;2023-11-19T01:41:37;3.30;;;3.00;;
23206;SDS011;11773;52.570;13.052;2023-11-19T01:44:07;3.47;;;3.17;;
23206;SDS011;11773;52.570;13.052;2023-11-19T01:46:38;2.87;;;2.63;;
23206;SDS011;11773;52.570;13.052;2023-11-19T01:49:13;2.80;;;2.50;;
23206;SDS011;11773;52.570;13.052;2023-11-19T01:51:46;3.10;;;2.80;;
23206;SDS011;11773;52.570;13.052;2023-11-19T01:54:17;2.90;;;2.40;;
23206;SDS011;11773;52.570;13.052;2023-11-19T01:56:46;3.23;;;2.80;;
23206;SDS011;11773;52.570;13.052;2023-11-19T01:59:16;4.00;;;3.20;;
23206;SDS011;11773;52.570;13.052;2023-11-19T02:01:48;4.43;;;3.83;;
23206;SDS011;11773;52.570;13.052;2023-11-19T02:04:20;3.23;;;2.93;;
23206;SDS011;11773;52.570;13.052;2023-11-19T02:06:50;2.60;;;2.40;;
23206;SDS011;11773;52.570;13.052;2023-11-19T02:09:24;2.83;;;2.63;;
23206;SDS011;11773;52.570;13.052;2023-11-19T02:11:54;2.63;;;2.43;;
23206;SDS011;11773;52.570;13.052;2023-11-19T02:14:25;2.80;;;2.60;;
23206;SDS011;11773;52.570;13.052;2023-11-19T02:16:55;2.40;;;2.10;;
23206;SDS011;11773;52.570;13.052;2023-11-19T02:19:26;3.10;;;2.80;;
23206;SDS011;11773;52.570;13.052;2023-11-19T02:21:56;2.80;;;2.50;;
23206;SDS011;11773;52.570;13.052;2023-11-19T02:24:25;3.43;;;2.80;;
23206;SDS011;11773;52.570;13.052;2023-11-19T02:27:02;3.23;;;2.93;;
23206;SDS011;11773;52.570;13.052;2023-11-19T02:29:37;3.13;;;2.83;;
23206;SDS011;11773;52.570;13.052;2023-11-19T02:32:06;3.17;;;2.87;;
23206;SDS011;11773;52.570;13.052;2023-11-19T02:34:36;2.70;;;2.50;;
23206;SDS011;11773;52.570;13.052;2023-11-19T02:37:06;3.13;;;2.43;;
23206;SDS011;11773;52.570;13.052;2023-11-19T02:39:37;2.70;;;2.50;;
23206;SDS011;11773;52.570;13.052;2023-11-19T02:42:06;3.10;;;2.80;;
23206;SDS011;11773;52.570;13.052;2023-11-19T02:44:37;3.30;;;2.97;;
23206;SDS011;11773;52.570;13.052;2023-11-19T02:47:06;2.80;;;2.60;;
23206;SDS011;11773;52.570;13.052;2023-11-19T02:49:36;2.60;;;2.40;;
23206;SDS011;11773;52.570;13.052;2023-11-19T02:52:06;2.70;;;2.50;;
23206;SDS011;11773;52.570;13.052;2023-11-19T02:54:37;2.57;;;2.37;;
23206;SDS011;11773;52.570;13.052;2023-11-19T02:57:08;2.60;;;2.30;;
23206;SDS011;11773;52.570;13.052;2023-11-19T02:59:40;2.50;;;2.30;;
23206;SDS011;11773;52.570;13.052;2023-11-19T03:02:10;2.20;;;2.00;;
23206;SDS011;11773;52.570;13.052;2023-11-19T03:04:42;2.50;;;2.30;;
23206;SDS011;11773;52.570;13.052;2023-11-19T03:07:13;2.27;;;2.00;;
23206;SDS011;11773;52.570;13.052;2023-11-19T03:09:42;3.50;;;2.47;;
23206;SDS011;11773;52.570;13.052;2023-11-19T03:12:12;3.03;;;2.50;;
23206;SDS011;11773;52.570;13.052;2023-11-19T03:14:42;2.37;;;2.17;;
23206;SDS011;11773;52.570;13.052;2023-11-19T03:17:11;2.60;;;2.40;;
23206;SDS011;11773;52.570;13.052;2023-11-19T03:19:41;2.67;;;2.47;;
23206;SDS011;11773;52.570;13.052;2023-11-19T03:22:11;3.07;;;2.83;;
23206;SDS011;11773;52.570;13.052;2023-11-19T03:24:40;3.67;;;2.73;;
23206;SDS011;11773;52.570;13.052;2023-11-19T03:27:10;2.90;;;2.60;;
23206;SDS011;11773;52.570;13.052;2023-11-19T03:29:41;2.53;;;2.33;;
23206;SDS011;11773;52.570;13.052;2023-11-19T03:32:11;3.13;;;2.50;;
23206;SDS011;11773;52.570;13.052;2023-11-19T03:34:41;2.70;;;2.50;;
23206;SDS011;11773;52.570;13.052;2023-11-19T03:37:11;1.90;;;1.80;;
23206;SDS011;11773;52.570;13.052;2023-11-19T03:39:42;2.40;;;2.20;;
23206;SDS011;11773;52.570;13.052;2023-11-19T03:42:12;2.83;;;2.57;;
23206;SDS011;11773;52.570;13.052;2023-11-19T03:44:41;1.97;;;1.87;;
23206;SDS011;11773;52.570;13.052;2023-11-19T03:47:11;3.10;;;2.80;;
23206;SDS011;11773;52.570;13.052;2023-11-19T03:49:40;2.90;;;2.60;;
23206;SDS011;11773;52.570;13.052;2023-11-19T03:52:10;2.77;;;2.20;;
23206;SDS011;11773;52.570;13.052;2023-11-19T03:54:42;2.60;;;2.40;;
23206;SDS011;11773;52.570;13.052;2023-11-19T03:57:12;2.60;;;2.40;;
23206;SDS011;11773;52.570;13.052;2023-11-19T03:59:44;2.53;;;2.33;;
23206;SDS011;11773;52.570;13.052;2023-11-19T04:02:13;2.47;;;2.27;;
23206;SDS011;11773;52.570;13.052;2023-11-19T04:04:44;2.20;;;2.00;;
23206;SDS011;11773;52.570;13.052;2023-11-19T04:07:14;2.50;;;2.30;;
23206;SDS011;11773;52.570;13.052;2023-11-19T04:09:43;2.40;;;2.20;;
23206;SDS011;11773;52.570;13.052;2023-11-19T04:12:14;2.40;;;1.90;;
23206;SDS011;11773;52.570;13.052;2023-11-19T04:14:43;2.30;;;2.10;;
23206;SDS011;11773;52.570;13.052;2023-11-19T04:17:13;2.30;;;2.10;;
23206;SDS011;11773;52.570;13.052;2023-11-19T04:19:42;2.20;;;2.00;;
23206;SDS011;11773;52.570;13.052;2023-11-19T04:22:12;2.40;;;2.20;;
23206;SDS011;11773;52.570;13.052;2023-11-19T04:24:42;2.27;;;1.93;;
23206;SDS011;11773;52.570;13.052;2023-11-19T04:27:13;1.60;;;1.50;;
23206;SDS011;11773;52.570;13.052;2023-11-19T04:29:43;2.30;;;1.80;;
23206;SDS011;11773;52.570;13.052;2023-11-19T04:32:14;1.93;;;1.83;;
23206;SDS011;11773;52.570;13.052;2023-11-19T04:34:43;2.30;;;2.10;;
23206;SDS011;11773;52.570;13.052;2023-11-19T04:37:13;2.37;;;2.17;;
23206;SDS011;11773;52.570;13.052;2023-11-19T04:39:44;2.30;;;2.10;;
23206;SDS011;11773;52.570;13.052;2023-11-19T04:42:14;1.80;;;1.57;;
23206;SDS011;11773;52.570;13.052;2023-11-19T04:44:44;1.70;;;1.60;;
23206;SDS011;11773;52.570;13.052;2023-11-19T04:47:14;2.33;;;1.97;;
23206;SDS011;11773;52.570;13.052;2023-11-19T04:49:43;1.90;;;1.80;;
23206;SDS011;11773;52.570;13.052;2023-11-19T04:52:13;2.60;;;1.70;;
23206;SDS011;11773;52.570;13.052;2023-11-19T04:54:43;2.30;;;2.00;;
23206;SDS011;11773;52.570;13.052;2023-11-19T04:57:12;2.00;;;1.80;;
23206;SDS011;11773;52.570;13.052;2023-11-19T04:59:42;2.07;;;1.87;;
23206;SDS011;11773;52.570;13.052;2023-11-19T05:02:12;1.80;;;1.70;;
23206;SDS011;11773;52.570;13.052;2023-11-19T05:04:43;1.60;;;1.50;;
23206;SDS011;11773;52.570;13.052;2023-11-19T05:07:14;1.37;;;1.27;;
23206;SDS011;11773;52.570;13.052;2023-11-19T05:09:43;1.73;;;1.63;;
23206;SDS011;11773;52.570;13.052;2023-11-19T05:12:13;1.40;;;1.30;;
23206;SDS011;11773;52.570;13.052;2023-11-19T05:14:42;1.37;;;1.27;;
23206;SDS011;11773;52.570;13.052;2023-11-19T05:17:14;1.40;;;1.30;;
23206;SDS011;11773;52.570;13.052;2023-11-19T05:19:45;1.70;;;1.60;;
23206;SDS011;11773;52.570;13.052;2023-11-19T05:22:16;1.60;;;1.50;;
23206;SDS011;11773;52.570;13.052;2023-11-19T05:24:47;1.87;;;1.77;;
23206;SDS011;11773;52.570;13.052;2023-11-19T05:27:17;1.70;;;1.60;;
23206;SDS011;11773;52.570;13.052;2023-11-19T05:29:47;1.23;;;1.20;;
23206;SDS011;11773;52.570;13.052;2023-11-19T05:32:16;1.70;;;1.60;;
23206;SDS011;11773;52.570;13.052;2023-11-19T05:34:46;1.70;;;1.60;;
23206;SDS011;11773;52.570;13.052;2023-11-19T05:37:17;1.10;;;1.10;;
23206;SDS011;11773;52.570;13.052;2023-11-19T05:39:47;1.40;;;1.30;;
23206;SDS011;11773;52.570;13.052;2023-11-19T05:42:17;1.40;;;1.30;;
23206;SDS011;11773;52.570;13.052;2023-11-19T05:44:47;1.90;;;1.43;;
23206;SDS011;11773;52.570;13.052;2023-11-19T05:47:16;1.43;;;1.33;;
23206;SDS011;11773;52.570;13.052;2023-11-19T05:49:46;1.70;;;1.60;;
23206;SDS011;11773;52.570;13.052;2023-11-19T05:52:16;1.97;;;1.60;;
23206;SDS011;11773;52.570;13.052;2023-11-19T05:54:45;1.77;;;1.60;;
23206;SDS011;11773;52.570;13.052;2023-11-19T05:57:17;1.47;;;1.37;;
23206;SDS011;11773;52.570;13.052;2023-11-19T05:59:48;1.33;;;1.23;;
23206;SDS011;11773;52.570;13.052;2023-11-19T06:02:18;1.47;;;1.37;;
23206;SDS011;11773;52.570;13.052;2023-11-19T06:04:48;1.30;;;1.20;;
23206;SDS011;11773;52.570;13.052;2023-11-19T06:07:18;1.97;;;1.80;;
23206;SDS011;11773;52.570;13.052;2023-11-19T06:09:47;1.60;;;1.50;;
23206;SDS011;11773;52.570;13.052;2023-11-19T06:12:17;1.37;;;1.27;;
23206;SDS011;11773;52.570;13.052;2023-11-19T06:14:47;1.33;;;1.23;;
23206;SDS011;11773;52.570;13.052;2023-11-19T06:17:16;2.10;;;1.73;;
23206;SDS011;11773;52.570;13.052;2023-11-19T06:19:46;1.53;;;1.40;;
23206;SDS011;11773;52.570;13.052;2023-11-19T06:22:15;1.20;;;1.20;;
23206;SDS011;11773;52.570;13.052;2023-11-19T06:24:45;1.07;;;1.00;;
23206;SDS011;11773;52.570;13.052;2023-11-19T06:27:14;1.00;;;1.00;;
23206;SDS011;11773;52.570;13.052;2023-11-19T06:29:44;1.60;;;1.50;;
23206;SDS011;11773;52.570;13.052;2023-11-19T06:32:14;1.17;;;1.07;;
23206;SDS011;11773;52.570;13.052;2023-11-19T06:34:43;0.80;;;0.80;;
23206;SDS011;11773;52.570;13.052;2023-11-19T06:37:13;0.63;;;0.60;;
23206;SDS011;11773;52.570;13.052;2023-11-19T06:39:43;0.80;;;0.80;;
23206;SDS011;11773;52.570;13.052;2023-11-19T06:42:12;0.87;;;0.87;;
23206;SDS011;11773;52.570;13.052;2023-11-19T06:44:42;0.80;;;0.80;;
23206;SDS011;11773;52.570;13.052;2023-11-19T06:47:12;0.70;;;0.70;;
23206;SDS011;11773;52.570;13.052;2023-11-19T06:49:43;1.23;;;0.93;;
23206;SDS011;11773;52.570;13.052;2023-11-19T06:52:13;1.10;;;1.00;;
23206;SDS011;11773;52.570;13.052;2023-11-19T06:54:44;1.40;;;1.30;;
23206;SDS011;11773;52.570;13.052;2023-11-19T06:57:13;0.93;;;0.83;;
23206;SDS011;11773;52.570;13.052;2023-11-19T06:59:43;0.77;;;0.77;;
23206;SDS011;11773;52.570;13.052;2023-11-19T07:02:13;0.77;;;0.77;;
23206;SDS011;11773;52.570;13.052;2023-11-19T07:04:43;0.70;;;0.70;;
23206;SDS011;11773;52.570;13.052;2023-11-19T07:07:12;0.60;;;0.60;;
23206;SDS011;11773;52.570;13.052;2023-11-19T07:09:42;0.50;;;0.50;;
23206;SDS011;11773;52.570;13.052;2023-11-19T07:12:11;0.70;;;0.70;;
23206;SDS011;11773;52.570;13.052;2023-11-19T07:14:41;0.40;;;0.40;;
23206;SDS011;11773;52.570;13.052;2023-11-19T07:17:10;0.70;;;0.70;;
23206;SDS011;11773;52.570;13.052;2023-11-19T07:19:40;0.80;;;0.80;;
23206;SDS011;11773;52.570;13.052;2023-11-19T07:22:10;1.00;;;1.00;;
23206;SDS011;11773;52.570;13.052;2023-11-19T07:24:40;1.00;;;1.00;;
23206;SDS011;11773;52.570;13.052;2023-11-19T07:27:10;1.20;;;1.10;;
23206;SDS011;11773;52.570;13.052;2023-11-19T07:29:42;0.63;;;0.63;;
23206;SDS011;11773;52.570;13.052;2023-11-19T07:32:13;0.90;;;0.90;;
23206;SDS011;11773;52.570;13.052;2023-11-19T07:34:42;2.37;;;1.80;;
23206;SDS011;11773;52.570;13.052;2023-11-19T07:37:12;2.00;;;1.70;;
23206;SDS011;11773;52.570;13.052;2023-11-19T07:39:43;1.63;;;1.53;;
23206;SDS011;11773;52.570;13.052;2023-11-19T07:42:13;0.73;;;0.70;;
23206;SDS011;11773;52.570;13.052;2023-11-19T07:44:45;0.77;;;0.77;;
23206;SDS011;11773;52.570;13.052;2023-11-19T07:47:15;0.70;;;0.70;;
23206;SDS011;11773;52.570;13.052;2023-11-19T07:49:44;0.70;;;0.70;;
23206;SDS011;11773;52.570;13.052;2023-11-19T07:52:14;0.60;;;0.60;;
23206;SDS011;11773;52.570;13.052;2023-11-19T07:54:46;0.67;;;0.67;;
23206;SDS011;11773;52.570;13.052;2023-11-19T07:57:15;0.50;;;0.50;;
23206;SDS011;11773;52.570;13.052;2023-11-19T07:59:45;0.70;;;0.70;;
23206;SDS011;11773;52.570;13.052;2023-11-19T08:02:15;0.97;;;0.97;;
23206;SDS011;11773;52.570;13.052;2023-11-19T08:04:45;0.50;;;0.50;;
23206;SDS011;11773;52.570;13.052;2023-11-19T08:07:17;0.60;;;0.60;;
23206;SDS011;11773;52.570;13.052;2023-11-19T08:09:47;0.80;;;0.80;;
23206;SDS011;11773;52.570;13.052;2023-11-19T08:12:16;0.70;;;0.70;;
23206;SDS011;11773;52.570;13.052;2023-11-19T08:14:46;0.80;;;0.80;;
23206;SDS011;11773;52.570;13.052;2023-11-19T08:17:17;0.80;;;0.80;;
23206;SDS011;11773;52.570;13.052;2023-11-19T08:19:46;0.70;;;0.70;;
23206;SDS011;11773;52.570;13.052;2023-11-19T08:22:16;0.70;;;0.70;;
23206;SDS011;11773;52.570;13.052;2023-11-19T08:24:45;1.90;;;1.10;;
23206;SDS011;11773;52.570;13.052;2023-11-19T08:27:15;0.73;;;0.60;;
23206;SDS011;11773;52.570;13.052;2023-11-19T08:29:45;0.40;;;0.40;;
23206;SDS011;11773;52.570;13.052;2023-11-19T08:32:14;0.70;;;0.70;;
23206;SDS011;11773;52.570;13.052;2023-11-19T08:34:44;0.60;;;0.60;;
23206;SDS011;11773;52.570;13.052;2023-11-19T08:37:13;0.60;;;0.60;;
23206;SDS011;11773;52.570;13.052;2023-11-19T08:39:45;0.70;;;0.70;;
23206;SDS011;11773;52.570;13.052;2023-11-19T08:42:18;0.63;;;0.63;;
23206;SDS011;11773;52.570;13.052;2023-11-19T08:44:49;0.40;;;0.40;;
23206;SDS011;11773;52.570;13.052;2023-11-19T08:47:20;0.60;;;0.60;;
23206;SDS011;11773;52.570;13.052;2023-11-19T08:49:51;0.77;;;0.77;;
23206;SDS011;11773;52.570;13.052;2023-11-19T08:52:23;0.63;;;0.63;;
23206;SDS011;11773;52.570;13.052;2023-11-19T08:54:53;0.60;;;0.50;;
23206;SDS011;11773;52.570;13.052;2023-11-19T08:57:23;0.50;;;0.50;;
23206;SDS011;11773;52.570;13.052;2023-11-19T08:59:52;0.50;;;0.50;;
23206;SDS011;11773;52.570;13.052;2023-11-19T09:02:22;0.70;;;0.70;;
23206;SDS011;11773;52.570;13.052;2023-11-19T09:04:52;0.93;;;0.67;;
23206;SDS011;11773;52.570;13.052;2023-11-19T09:07:21;0.40;;;0.40;;
23206;SDS011;11773;52.570;13.052;2023-11-19T09:09:52;0.47;;;0.47;;
23206;SDS011;11773;52.570;13.052;2023-11-19T09:12:22;0.40;;;0.40;;
23206;SDS011;11773;52.570;13.052;2023-11-19T09:14:51;0.40;;;0.40;;
23206;SDS011;11773;52.570;13.052;2023-11-19T09:17:21;0.50;;;0.50;;
23206;SDS011;11773;52.570;13.052;2023-11-19T09:19:50;0.50;;;0.50;;
23206;SDS011;11773;52.570;13.052;2023-11-19T09:22:20;0.40;;;0.40;;
23206;SDS011;11773;52.570;13.052;2023-11-19T09:24:50;0.40;;;0.40;;
23206;SDS011;11773;52.570;13.052;2023-11-19T09:27:20;0.60;;;0.60;;
23206;SDS011;11773;52.570;13.052;2023-11-19T09:29:49;0.50;;;0.50;;
23206;SDS011;11773;52.570;13.052;2023-11-19T09:32:20;0.60;;;0.60;;
23206;SDS011;11773;52.570;13.052;2023-11-19T09:34:50;0.50;;;0.50;;
23206;SDS011;11773;52.570;13.052;2023-11-19T09:37:20;0.60;;;0.60;;
23206;SDS011;11773;52.570;13.052;2023-11-19T09:39:49;0.70;;;0.70;;
23206;SDS011;11773;52.570;13.052;2023-11-19T09:42:20;0.90;;;0.90;;
23206;SDS011;11773;52.570;13.052;2023-11-19T09:44:51;0.70;;;0.70;;
23206;SDS011;11773;52.570;13.052;2023-11-19T09:47:23;0.60;;;0.60;;
23206;SDS011;11773;52.570;13.052;2023-11-19T09:49:57;0.50;;;0.47;;
23206;SDS011;11773;52.570;13.052;2023-11-19T09:52:26;0.70;;;0.70;;
23206;SDS011;11773;52.570;13.052;2023-11-19T09:54:56;0.70;;;0.70;;
23206;SDS011;11773;52.570;13.052;2023-11-19T09:57:25;0.60;;;0.60;;
23206;SDS011;11773;52.570;13.052;2023-11-19T09:59:58;0.53;;;0.53;;
23206;SDS011;11773;52.570;13.052;2023-11-19T10:02:28;0.53;;;0.40;;
23206;SDS011;11773;52.570;13.052;2023-11-19T10:05:04;0.60;;;0.60;;
23206;SDS011;11773;52.570;13.052;2023-11-19T10:07:35;0.60;;;0.60;;
23206;SDS011;11773;52.570;13.052;2023-11-19T10:10:05;0.80;;;0.80;;
23206;SDS011;11773;52.570;13.052;2023-11-19T10:12:37;0.80;;;0.80;;
23206;SDS011;11773;52.570;13.052;2023-11-19T10:15:09;0.40;;;0.40;;
23206;SDS011;11773;52.570;13.052;2023-11-19T10:17:43;0.50;;;0.50;;
23206;SDS011;11773;52.570;13.052;2023-11-19T10:20:13;0.40;;;0.40;;
23206;SDS011;11773;52.570;13.052;2023-11-19T10:22:42;0.50;;;0.50;;
23206;SDS011;11773;52.570;13.052;2023-11-19T10:25:32;0.53;;;0.40;;
23206;SDS011;11773;52.570;13.052;2023-11-19T10:27:52;0.53;;;0.53;;
23206;SDS011;11773;52.570;13.052;2023-11-19T10:30:24;0.67;;;0.53;;
23206;SDS011;11773;52.570;13.052;2023-11-19T10:33:06;0.77;;;0.60;;
23206;SDS011;11773;52.570;13.052;2023-11-19T10:35:52;1.17;;;0.50;;
23206;SDS011;11773;52.570;13.052;2023-11-19T10:38:28;1.30;;;0.50;;
23206;SDS011;11773;52.570;13.052;2023-11-19T10:40:58;1.07;;;0.80;;
23206;SDS011;11773;52.570;13.052;2023-11-19T10:43:27;0.70;;;0.70;;
23206;SDS011;11773;52.570;13.052;2023-11-19T10:46:20;0.40;;;0.40;;
23206;SDS011;11773;52.570;13.052;2023-11-19T10:48:39;0.70;;;0.47;;
23206;SDS011;11773;52.570;13.052;2023-11-19T10:51:09;0.60;;;0.47;;
23206;SDS011;11773;52.570;13.052;2023-11-19T10:53:41;0.80;;;0.70;;
23206;SDS011;11773;52.570;13.052;2023-11-19T10:56:14;0.90;;;0.60;;
23206;SDS011;11773;52.570;13.052;2023-11-19T10:58:48;0.97;;;0.87;;
23206;SDS011;11773;52.570;13.052;2023-11-19T11:01:26;1.63;;;0.90;;
23206;SDS011;11773;52.570;13.052;2023-11-19T11:04:13;1.27;;;1.17;;
23206;SDS011;11773;52.570;13.052;2023-11-19T11:06:45;1.97;;;1.37;;
23206;SDS011;11773;52.570;13.052;2023-11-19T11:09:17;1.00;;;1.00;;
23206;SDS011;11773;52.570;13.052;2023-11-19T11:11:47;3.30;;;1.30;;
23206;SDS011;11773;52.570;13.052;2023-11-19T11:14:18;1.17;;;0.90;;
23206;SDS011;11773;52.570;13.052;2023-11-19T11:16:50;1.53;;;1.10;;
23206;SDS011;11773;52.570;13.052;2023-11-19T11:19:23;1.20;;;0.80;;
23206;SDS011;11773;52.570;13.052;2023-11-19T11:21:53;1.87;;;1.10;;
23206;SDS011;11773;52.570;13.052;2023-11-19T11:27:54;2.20;;;1.20;;
23206;SDS011;11773;52.570;13.052;2023-11-19T11:30:26;2.37;;;1.23;;
23206;SDS011;11773;52.570;13.052;2023-11-19T11:33:19;2.53;;;1.50;;
23206;SDS011;11773;52.570;13.052;2023-11-19T11:36:22;1.77;;;1.10;;
23206;SDS011;11773;52.570;13.052;2023-11-19T11:38:53;2.40;;;1.20;;
23206;SDS011;11773;52.570;13.052;2023-11-19T11:41:27;2.08;;;1.00;;
23206;SDS011;11773;52.570;13.052;2023-11-19T11:43:58;2.97;;;1.20;;
23206;SDS011;11773;52.570;13.052;2023-11-19T11:47:15;2.33;;;1.30;;
23206;SDS011;11773;52.570;13.052;2023-11-19T11:49:07;1.73;;;1.17;;
23206;SDS011;11773;52.570;13.052;2023-11-19T11:57:12;1.83;;;1.20;;
23206;SDS011;11773;52.570;13.052;2023-11-19T11:59:52;3.13;;;1.53;;
23206;SDS011;11773;52.570;13.052;2023-11-19T12:02:19;2.10;;;1.47;;
23206;SDS011;11773;52.570;13.052;2023-11-19T12:04:51;2.60;;;1.40;;
23206;SDS011;11773;52.570;13.052;2023-11-19T12:07:23;1.67;;;1.20;;
23206;SDS011;11773;52.570;13.052;2023-11-19T12:10:06;2.20;;;1.40;;
23206;SDS011;11773;52.570;13.052;2023-11-19T12:12:42;1.03;;;0.93;;
23206;SDS011;11773;52.570;13.052;2023-11-19T12:15:11;1.70;;;0.97;;
23206;SDS011;11773;52.570;13.052;2023-11-19T12:17:42;2.63;;;1.37;;
23206;SDS011;11773;52.570;13.052;2023-11-19T12:20:18;2.77;;;1.40;;
23206;SDS011;11773;52.570;13.052;2023-11-19T12:22:53;1.37;;;1.13;;
23206;SDS011;11773;52.570;13.052;2023-11-19T12:25:23;2.37;;;1.20;;
23206;SDS011;11773;52.570;13.052;2023-11-19T12:27:52;2.37;;;1.30;;
23206;SDS011;11773;52.570;13.052;2023-11-19T12:30:23;2.10;;;1.20;;
23206;SDS011;11773;52.570;13.052;2023-11-19T12:32:54;2.03;;;1.03;;
23206;SDS011;11773;52.570;13.052;2023-11-19T12:35:24;1.90;;;1.37;;
23206;SDS011;11773;52.570;13.052;2023-11-19T12:37:53;2.43;;;1.30;;
23206;SDS011;11773;52.570;13.052;2023-11-19T12:40:24;1.30;;;0.97;;
23206;SDS011;11773;52.570;13.052;2023-11-19T12:42:55;2.40;;;1.27;;
23206;SDS011;11773;52.570;13.052;2023-11-19T12:45:35;2.23;;;1.40;;
23206;SDS011;11773;52.570;13.052;2023-11-19T12:48:06;3.93;;;1.70;;
23206;SDS011;11773;52.570;13.052;2023-11-19T12:50:55;3.67;;;1.53;;
23206;SDS011;11773;52.570;13.052;2023-11-19T12:53:29;2.60;;;1.50;;
23206;SDS011;11773;52.570;13.052;2023-11-19T12:56:09;1.40;;;1.00;;
23206;SDS011;11773;52.570;13.052;2023-11-19T12:58:39;2.57;;;1.30;;
23206;SDS011;11773;52.570;13.052;2023-11-19T13:01:09;2.13;;;1.10;;
23206;SDS011;11773;52.570;13.052;2023-11-19T13:03:46;2.47;;;1.40;;
23206;SDS011;11773;52.570;13.052;2023-11-19T13:06:18;2.43;;;1.20;;
23206;SDS011;11773;52.570;13.052;2023-11-19T13:08:49;2.27;;;1.40;;
23206;SDS011;11773;52.570;13.052;2023-11-19T13:11:32;1.67;;;1.10;;
23206;SDS011;11773;52.570;13.052;2023-11-19T13:14:04;1.83;;;1.30;;
23206;SDS011;11773;52.570;13.052;2023-11-19T13:16:38;2.73;;;1.57;;
23206;SDS011;11773;52.570;13.052;2023-11-19T13:19:09;5.00;;;1.77;;
23206;SDS011;11773;52.570;13.052;2023-11-19T13:21:39;2.50;;;1.40;;
23206;SDS011;11773;52.570;13.052;2023-11-19T13:24:09;2.60;;;1.37;;
23206;SDS011;11773;52.570;13.052;2023-11-19T13:26:39;2.77;;;1.30;;
23206;SDS011;11773;52.570;13.052;2023-11-19T13:29:08;3.17;;;1.57;;
23206;SDS011;11773;52.570;13.052;2023-11-19T13:31:38;1.80;;;0.93;;
23206;SDS011;11773;52.570;13.052;2023-11-19T13:34:07;1.60;;;1.30;;
23206;SDS011;11773;52.570;13.052;2023-11-19T13:36:37;2.10;;;1.27;;
23206;SDS011;11773;52.570;13.052;2023-11-19T13:39:07;3.90;;;1.50;;
23206;SDS011;11773;52.570;13.052;2023-11-19T13:41:36;3.23;;;1.37;;
23206;SDS011;11773;52.570;13.052;2023-11-19T13:44:06;1.80;;;1.00;;
23206;SDS011;11773;52.570;13.052;2023-11-19T13:46:35;1.87;;;1.40;;
23206;SDS011;11773;52.570;13.052;2023-11-19T13:49:06;2.60;;;1.77;;
23206;SDS011;11773;52.570;13.052;2023-11-19T13:51:36;1.27;;;1.17;;
23206;SDS011;11773;52.570;13.052;2023-11-19T13:54:05;1.93;;;1.27;;
23206;SDS011;11773;52.570;13.052;2023-11-19T13:56:35;2.83;;;1.70;;
23206;SDS011;11773;52.570;13.052;2023-11-19T13:59:04;2.70;;;1.50;;
23206;SDS011;11773;52.570;13.052;2023-11-19T14:01:35;3.13;;;1.47;;
23206;SDS011;11773;52.570;13.052;2023-11-19T14:04:05;1.63;;;1.30;;
23206;SDS011;11773;52.570;13.052;2023-11-19T14:06:36;2.73;;;1.63;;
23206;SDS011;11773;52.570;13.052;2023-11-19T14:09:06;3.20;;;2.27;;
23206;SDS011;11773;52.570;13.052;2023-11-19T14:11:36;3.33;;;1.77;;
23206;SDS011;11773;52.570;13.052;2023-11-19T14:14:07;2.90;;;1.80;;
23206;SDS011;11773;52.570;13.052;2023-11-19T14:16:37;3.73;;;1.80;;
23206;SDS011;11773;52.570;13.052;2023-11-19T14:19:07;1.83;;;1.47;;
23206;SDS011;11773;52.570;13.052;2023-11-19T14:21:36;1.93;;;1.70;;
23206;SDS011;11773;52.570;13.052;2023-11-19T14:24:06;3.50;;;1.83;;
23206;SDS011;11773;52.570;13.052;2023-11-19T14:26:36;2.70;;;1.80;;
23206;SDS011;11773;52.570;13.052;2023-11-19T14:29:05;3.00;;;1.43;;
23206;SDS011;11773;52.570;13.052;2023-11-19T14:31:35;3.00;;;1.40;;
23206;SDS011;11773;52.570;13.052;2023-11-19T14:34:04;1.70;;;1.17;;
23206;SDS011;11773;52.570;13.052;2023-11-19T14:36:34;2.30;;;1.30;;
23206;SDS011;11773;52.570;13.052;2023-11-19T14:39:04;1.70;;;1.30;;
23206;SDS011;11773;52.570;13.052;2023-11-19T14:41:34;2.53;;;1.50;;
23206;SDS011;11773;52.570;13.052;2023-11-19T14:44:03;2.20;;;1.40;;
23206;SDS011;11773;52.570;13.052;2023-11-19T14:46:34;2.70;;;1.40;;
23206;SDS011;11773;52.570;13.052;2023-11-19T14:49:04;2.53;;;1.57;;
23206;SDS011;11773;52.570;13.052;2023-11-19T14:51:36;2.07;;;1.10;;
23206;SDS011;11773;52.570;13.052;2023-11-19T14:54:06;4.20;;;1.57;;
23206;SDS011;11773;52.570;13.052;2023-11-19T14:56:35;1.90;;;1.30;;
23206;SDS011;11773;52.570;13.052;2023-11-19T14:59:05;2.97;;;1.43;;
23206;SDS011;11773;52.570;13.052;2023-11-19T15:01:35;3.53;;;1.33;;
23206;SDS011;11773;52.570;13.052;2023-11-19T15:04:05;3.30;;;2.03;;